Beechville, Illinois
Current Conditions -  °F | °C
As of 7:54 AM on Monday 26 Jan 2015 (Local Time) from KSET Reporting Station
Overcast Overcast  
Wind Chill: 19°   Ceiling: 2500
Heat Index: 27°   Visibility: 10mi
Dew Point: 22°   Wind: 7mph
Humidity: 81%   Direction: 260°W
Pressure: 30.04"   Gusts: NA
Location:  39.0922°N, 90.6653°W
Report Text: KSET 261354Z AUTO 26006KT 10SM OVC025 M03/M06 A3004 RMK AO2 SLP178 T10281056
Loading
Personal Weather Stations






























Interactive Weather Map New forecast layout! Learn more

10-Day Weather Forecast

Advertisements
Track Severe Weather on mobile